createdAt,value
2022-11-13T00:01:21.092Z,10.18
2022-11-13T00:03:48.468Z,10.20
2022-11-13T00:06:17.055Z,12.57
2022-11-13T00:08:44.406Z,13.05
2022-11-13T00:11:19.898Z,13.48
2022-11-13T00:13:48.635Z,12.32
2022-11-13T00:16:19.965Z,12.40
2022-11-13T00:18:48.159Z,12.68
2022-11-13T00:21:18.885Z,12.38
2022-11-13T00:23:46.060Z,13.63
2022-11-13T00:26:28.777Z,13.02
2022-11-13T00:29:01.469Z,13.25
2022-11-13T00:31:29.852Z,12.98
2022-11-13T00:34:26.037Z,12.27
2022-11-13T00:36:45.286Z,12.82
2022-11-13T00:39:12.062Z,12.73
2022-11-13T00:41:38.871Z,12.80
2022-11-13T00:44:05.965Z,12.50
2022-11-13T00:46:32.752Z,12.18
2022-11-13T00:48:59.524Z,12.25
2022-11-13T00:51:26.278Z,11.77
2022-11-13T00:53:53.153Z,12.00
2022-11-13T00:56:19.966Z,11.52
2022-11-13T00:58:46.740Z,11.63
2022-11-13T01:01:17.791Z,10.85
2022-11-13T01:03:45.015Z,11.48
2022-11-13T01:06:13.695Z,11.50
2022-11-13T01:08:41.631Z,10.75
2022-11-13T01:11:24.258Z,10.32
2022-11-13T01:13:52.006Z,11.25
2022-11-13T01:16:22.581Z,10.60
2022-11-13T01:18:49.710Z,11.57
2022-11-13T01:21:22.601Z,11.50
2022-11-13T01:23:49.425Z,11.43
2022-11-13T01:26:26.250Z,11.18
2022-11-13T01:28:54.851Z,10.90
2022-11-13T01:31:27.251Z,10.73
2022-11-13T01:33:54.136Z,11.48
2022-11-13T01:36:27.815Z,11.60
2022-11-13T01:38:54.997Z,10.90
2022-11-13T01:41:28.613Z,10.18
2022-11-13T01:43:56.595Z,10.68
2022-11-13T01:46:34.732Z,10.43
2022-11-13T01:49:10.583Z,10.57
2022-11-13T01:51:46.902Z,10.70
2022-11-13T01:54:21.263Z,11.30
2022-11-13T01:56:48.758Z,10.80
2022-11-13T01:59:24.416Z,10.70
2022-11-13T02:01:51.494Z,10.73
2022-11-13T02:04:18.755Z,10.45
2022-11-13T02:06:55.192Z,9.90
2022-11-13T02:09:26.987Z,10.95
2022-11-13T02:11:54.760Z,9.50
2022-11-13T02:14:24.793Z,11.25
2022-11-13T02:16:57.107Z,10.35
2022-11-13T02:19:34.330Z,9.93
2022-11-13T02:22:45.292Z,10.70
2022-11-13T02:25:13.593Z,9.52
2022-11-13T02:27:44.896Z,10.02
2022-11-13T02:30:32.439Z,10.55
2022-11-13T02:33:00.539Z,11.23
2022-11-13T02:35:34.417Z,10.82
2022-11-13T02:38:04.628Z,10.30
2022-11-13T02:40:33.025Z,11.20
2022-11-13T02:43:00.030Z,11.30
2022-11-13T02:45:26.799Z,11.35
2022-11-13T02:47:53.585Z,11.13
2022-11-13T02:50:20.590Z,10.98
2022-11-13T02:52:47.389Z,10.57
2022-11-13T02:55:14.295Z,10.45
2022-11-13T02:57:41.077Z,10.43
2022-11-13T03:00:13.593Z,11.23
2022-11-13T03:02:41.438Z,10.07
2022-11-13T03:05:13.576Z,10.45
2022-11-13T03:07:41.587Z,10.25
2022-11-13T03:10:10.389Z,10.65
2022-11-13T03:12:38.873Z,10.27
2022-11-13T03:15:07.864Z,10.25
2022-11-13T03:17:34.965Z,10.18
2022-11-13T03:20:01.959Z,10.05
2022-11-13T03:22:28.728Z,10.32
2022-11-13T03:24:55.532Z,11.23
2022-11-13T03:27:22.341Z,9.63
2022-11-13T03:29:49.324Z,11.25
2022-11-13T03:32:16.547Z,9.15
2022-11-13T03:34:43.311Z,10.23
2022-11-13T03:37:10.135Z,9.43
2022-11-13T03:39:36.927Z,10.23
2022-11-13T03:42:03.712Z,10.90
2022-11-13T03:44:30.495Z,10.10
2022-11-13T03:46:57.292Z,10.80
2022-11-13T03:49:24.055Z,10.10
2022-11-13T03:51:50.808Z,10.05
2022-11-13T03:54:17.663Z,10.15
2022-11-13T03:56:44.436Z,10.07
2022-11-13T03:59:11.195Z,8.93
2022-11-13T04:01:38.030Z,9.00
2022-11-13T04:04:05.069Z,9.85
2022-11-13T04:06:32.154Z,9.43
2022-11-13T04:08:58.961Z,9.48
2022-11-13T04:11:25.781Z,10.25
2022-11-13T04:13:52.555Z,10.13
2022-11-13T04:16:19.341Z,9.38
2022-11-13T04:18:46.131Z,9.00
2022-11-13T04:21:12.901Z,9.40
2022-11-13T04:23:39.688Z,10.18
2022-11-13T04:26:06.451Z,9.23
2022-11-13T04:28:33.292Z,8.98
2022-11-13T04:31:00.107Z,10.40
2022-11-13T04:33:27.004Z,9.20
2022-11-13T04:35:53.806Z,9.07
2022-11-13T04:38:20.577Z,9.02
2022-11-13T04:41:11.044Z,10.00
2022-11-13T04:43:37.875Z,9.77
2022-11-13T04:46:04.727Z,9.50
2022-11-13T04:48:31.739Z,9.50
2022-11-13T04:50:58.888Z,8.95
2022-11-13T04:53:25.676Z,9.07
2022-11-13T04:55:53.477Z,9.60
2022-11-13T04:58:20.310Z,10.35
2022-11-13T05:00:47.086Z,10.27
2022-11-13T05:03:13.876Z,9.65
2022-11-13T05:05:40.666Z,9.45
2022-11-13T05:08:07.444Z,9.30
2022-11-13T05:10:34.231Z,9.82
2022-11-13T05:13:01.009Z,10.20
2022-11-13T05:15:27.980Z,10.57
2022-11-13T05:17:54.766Z,10.90
2022-11-13T05:20:21.793Z,9.32
2022-11-13T05:22:48.562Z,10.20
2022-11-13T05:25:15.468Z,10.50
2022-11-13T05:27:42.658Z,9.52
2022-11-13T05:30:10.039Z,8.70
2022-11-13T05:32:36.866Z,9.50
2022-11-13T05:35:03.978Z,10.18
2022-11-13T05:37:30.771Z,10.85
2022-11-13T05:39:57.650Z,10.15
2022-11-13T05:42:24.673Z,9.55
2022-11-13T05:44:51.461Z,9.63
2022-11-13T05:47:18.291Z,9.93
2022-11-13T05:49:45.246Z,9.60
2022-11-13T05:52:12.055Z,10.70
2022-11-13T05:54:38.875Z,9.82
2022-11-13T05:57:05.732Z,9.85
2022-11-13T05:59:32.499Z,10.68
2022-11-13T06:01:59.285Z,10.43
2022-11-13T06:04:26.117Z,10.90
2022-11-13T06:06:52.936Z,12.07
2022-11-13T06:09:19.740Z,11.10
2022-11-13T06:11:46.526Z,10.50
2022-11-13T06:14:13.307Z,11.63
2022-11-13T06:16:40.432Z,10.98
2022-11-13T06:19:10.258Z,11.02
2022-11-13T06:21:39.912Z,10.88
2022-11-13T06:24:08.457Z,10.10
2022-11-13T06:26:36.579Z,10.85
2022-11-13T06:29:06.016Z,10.75
2022-11-13T06:31:36.613Z,11.77
2022-11-13T06:34:04.387Z,9.65
2022-11-13T06:36:34.519Z,12.18
2022-11-13T06:39:01.571Z,11.30
2022-11-13T06:41:31.279Z,11.43
2022-11-13T06:44:02.800Z,11.13
2022-11-13T06:46:30.607Z,11.63
2022-11-13T06:48:58.328Z,11.15
2022-11-13T06:51:30.513Z,11.55
2022-11-13T06:53:58.145Z,11.98
2022-11-13T06:56:25.744Z,11.77
2022-11-13T06:58:54.995Z,11.93
2022-11-13T07:01:24.718Z,11.82
2022-11-13T07:03:51.530Z,11.30
2022-11-13T07:06:21.859Z,11.35
2022-11-13T07:08:49.342Z,12.85
2022-11-13T07:11:21.895Z,11.75
2022-11-13T07:13:48.953Z,12.40
2022-11-13T07:16:17.908Z,11.55
2022-11-13T07:18:51.417Z,12.48
2022-11-13T07:21:18.876Z,12.15
2022-11-13T07:23:48.844Z,12.93
2022-11-13T07:26:15.869Z,12.63
2022-11-13T07:28:42.720Z,12.27
2022-11-13T07:31:11.327Z,11.95
2022-11-13T07:33:38.137Z,12.10
2022-11-13T07:36:05.943Z,13.07
2022-11-13T07:38:32.725Z,12.80
2022-11-13T07:41:00.206Z,13.55
2022-11-13T07:43:27.098Z,12.55
2022-11-13T07:45:55.336Z,12.88
2022-11-13T07:48:23.082Z,12.35
2022-11-13T07:50:50.381Z,12.57
2022-11-13T07:53:18.781Z,11.80
2022-11-13T07:55:46.101Z,12.52
2022-11-13T07:58:13.547Z,12.18
2022-11-13T08:00:40.392Z,11.95
2022-11-13T08:03:12.335Z,12.63
2022-11-13T08:05:39.981Z,13.00
2022-11-13T08:08:08.332Z,12.05
2022-11-13T08:10:36.480Z,11.77
2022-11-13T08:13:09.784Z,13.48
2022-11-13T08:15:36.791Z,12.17
2022-11-13T08:18:05.103Z,11.23
2022-11-13T08:20:32.816Z,11.93
2022-11-13T08:23:02.433Z,12.20
2022-11-13T08:25:30.705Z,11.88
2022-11-13T08:27:58.539Z,12.02
2022-11-13T08:30:27.563Z,11.85
2022-11-13T08:32:55.201Z,11.90
2022-11-13T08:35:26.600Z,11.38
2022-11-13T08:38:07.022Z,12.30
2022-11-13T08:40:34.881Z,13.27
2022-11-13T08:43:05.174Z,11.70
2022-11-13T08:45:32.042Z,11.20
2022-11-13T08:48:03.412Z,11.75
2022-11-13T08:50:32.017Z,11.57
2022-11-13T08:53:00.683Z,11.07
2022-11-13T08:55:27.949Z,12.95
2022-11-13T08:57:58.395Z,12.55
2022-11-13T09:00:25.206Z,10.65
2022-11-13T09:03:00.294Z,12.77
2022-11-13T09:05:27.851Z,11.48
2022-11-13T09:08:00.507Z,12.35
2022-11-13T09:10:28.452Z,11.95
2022-11-13T09:13:05.075Z,13.18
2022-11-13T09:15:32.937Z,12.60
2022-11-13T09:18:02.108Z,12.77
2022-11-13T09:20:31.801Z,13.68
2022-11-13T09:23:04.439Z,12.60
2022-11-13T09:25:37.600Z,13.45
2022-11-13T09:28:06.576Z,12.88
2022-11-13T09:30:33.784Z,13.98
2022-11-13T09:33:01.135Z,14.60
2022-11-13T09:35:36.324Z,14.73
2022-11-13T09:38:11.316Z,14.02
2022-11-13T09:41:06.636Z,15.00
2022-11-13T09:46:38.134Z,14.27
2022-11-13T09:49:18.283Z,16.20
2022-11-13T09:51:53.949Z,16.90
2022-11-13T09:54:21.713Z,16.45
2022-11-13T09:57:15.769Z,17.80
2022-11-13T09:59:59.928Z,12.82
2022-11-13T10:03:12.191Z,16.58
2022-11-13T10:05:53.374Z,16.60
2022-11-13T10:08:52.197Z,18.02
2022-11-13T10:11:44.609Z,17.20
2022-11-13T10:14:23.722Z,18.20
2022-11-13T10:17:15.539Z,17.80
2022-11-13T10:20:00.050Z,17.90
2022-11-13T10:25:19.834Z,17.80
2022-11-13T10:27:56.632Z,19.33
2022-11-13T10:30:23.959Z,20.35
2022-11-13T10:32:51.201Z,19.75
2022-11-13T10:35:41.948Z,21.20
2022-11-13T10:38:21.909Z,19.33
2022-11-13T10:40:48.791Z,19.40
2022-11-13T10:43:23.392Z,21.55
2022-11-13T10:46:05.368Z,20.15
2022-11-13T10:48:36.117Z,21.13
2022-11-13T10:51:20.211Z,22.05
2022-11-13T10:53:47.943Z,20.42
2022-11-13T10:56:29.980Z,20.02
2022-11-13T10:59:14.680Z,18.17
2022-11-13T11:01:43.660Z,20.02
2022-11-13T11:04:24.028Z,20.90
2022-11-13T11:09:42.781Z,20.60
2022-11-13T11:12:30.301Z,19.13
2022-11-13T11:14:58.592Z,19.27
2022-11-13T11:18:01.424Z,19.80
2022-11-13T11:20:53.755Z,19.60
2022-11-13T11:23:41.625Z,19.33
2022-11-13T11:26:34.051Z,19.27
2022-11-13T11:29:38.356Z,19.70
2022-11-13T11:33:02.278Z,20.70
2022-11-13T11:35:43.729Z,21.00
2022-11-13T11:38:42.575Z,19.63
2022-11-13T11:41:17.063Z,21.77
2022-11-13T11:44:01.956Z,21.45
2022-11-13T11:46:30.067Z,21.58
2022-11-13T11:49:00.972Z,22.33
2022-11-13T11:52:12.269Z,22.77
2022-11-13T11:55:11.915Z,20.52
2022-11-13T11:58:06.165Z,19.83
2022-11-13T12:00:37.239Z,20.85
2022-11-13T12:03:29.404Z,22.15
2022-11-13T12:06:29.596Z,21.65
2022-11-13T12:09:08.882Z,21.35
2022-11-13T12:11:42.446Z,21.02
2022-11-13T12:14:30.911Z,22.17
2022-11-13T12:17:22.314Z,22.63
2022-11-13T12:20:26.080Z,21.88
2022-11-13T12:23:05.019Z,22.27
2022-11-13T12:26:03.213Z,23.42
2022-11-13T12:29:06.557Z,21.08
2022-11-13T12:32:12.677Z,21.33
2022-11-13T12:34:49.892Z,22.15
2022-11-13T12:37:54.451Z,23.08
2022-11-13T12:40:44.296Z,16.95
2022-11-13T12:43:38.531Z,23.65
2022-11-13T12:46:11.591Z,22.88
2022-11-13T12:48:44.469Z,23.02
2022-11-13T12:51:17.721Z,23.02
2022-11-13T12:53:48.135Z,16.67
2022-11-13T12:56:28.462Z,22.95
2022-11-13T12:59:30.945Z,21.55
2022-11-13T13:02:43.972Z,22.23
2022-11-13T13:05:19.197Z,21.23
2022-11-13T13:08:16.390Z,22.20
2022-11-13T13:11:26.558Z,22.70
2022-11-13T13:14:14.910Z,23.02
2022-11-13T13:16:41.693Z,21.50
2022-11-13T13:19:28.839Z,23.23
2022-11-13T13:21:56.233Z,22.00
2022-11-13T13:24:41.595Z,22.58
2022-11-13T13:27:30.692Z,20.77
2022-11-13T13:29:58.972Z,20.20
2022-11-13T13:32:49.843Z,21.08
2022-11-13T13:35:34.451Z,24.15
2022-11-13T13:41:17.891Z,20.38
2022-11-13T13:44:21.737Z,21.00
2022-11-13T13:46:49.069Z,21.67
2022-11-13T13:49:20.669Z,22.52
2022-11-13T13:51:51.826Z,22.08
2022-11-13T13:54:32.765Z,23.42
2022-11-13T13:56:59.899Z,23.77
2022-11-13T13:59:35.915Z,23.42
2022-11-13T14:02:12.601Z,22.20
2022-11-13T14:04:46.063Z,22.55
2022-11-13T14:07:26.848Z,22.77
2022-11-13T14:10:09.040Z,23.10
2022-11-13T14:12:35.892Z,23.02
2022-11-13T14:15:15.036Z,23.65
2022-11-13T14:17:41.828Z,22.58
2022-11-13T14:20:12.775Z,24.27
2022-11-13T14:22:41.725Z,22.13
2022-11-13T14:25:28.453Z,23.13
2022-11-13T14:27:55.360Z,23.00
2022-11-13T14:30:26.354Z,22.15
2022-11-13T14:32:54.045Z,23.15
2022-11-13T14:35:25.031Z,23.02
2022-11-13T14:37:53.878Z,22.00
2022-11-13T14:40:33.724Z,23.55
2022-11-13T14:43:07.433Z,25.10
2022-11-13T14:45:34.590Z,23.80
2022-11-13T14:48:18.511Z,24.90
2022-11-13T14:50:58.742Z,25.58
2022-11-13T14:53:35.051Z,24.65
2022-11-13T14:56:12.063Z,24.30
2022-11-13T14:58:46.907Z,24.08
2022-11-13T15:01:24.961Z,24.45
2022-11-13T15:03:52.889Z,25.17
2022-11-13T15:06:25.886Z,24.17
2022-11-13T15:08:56.400Z,26.77
2022-11-13T15:11:26.649Z,28.60
2022-11-13T15:13:53.640Z,27.75
2022-11-13T15:16:28.379Z,29.15
2022-11-13T15:19:18.361Z,28.02
2022-11-13T15:22:05.562Z,26.92
2022-11-13T15:24:33.414Z,27.25
2022-11-13T15:27:01.702Z,25.92
2022-11-13T15:29:28.483Z,26.23
2022-11-13T15:31:55.487Z,28.02
2022-11-13T15:34:22.321Z,28.15
2022-11-13T15:36:49.366Z,29.40
2022-11-13T15:39:23.329Z,28.75
2022-11-13T15:41:50.793Z,28.10
2022-11-13T15:44:17.703Z,27.73
2022-11-13T15:46:44.513Z,29.08
2022-11-13T15:49:11.322Z,28.73
2022-11-13T15:51:46.546Z,27.65
2022-11-13T15:54:31.577Z,27.83
2022-11-13T15:56:58.340Z,28.50
2022-11-13T15:59:25.158Z,28.60
2022-11-13T16:01:56.874Z,29.00
2022-11-13T16:04:30.206Z,29.15
2022-11-13T16:07:29.109Z,30.08
2022-11-13T16:09:55.982Z,27.98
2022-11-13T16:12:22.911Z,27.50
2022-11-13T16:14:49.810Z,27.42
2022-11-13T16:17:21.845Z,27.65
2022-11-13T16:19:51.881Z,27.40
2022-11-13T16:22:21.224Z,28.48
2022-11-13T16:24:48.246Z,30.58
2022-11-13T16:27:25.773Z,27.92
2022-11-13T16:29:52.911Z,27.58
2022-11-13T16:32:20.166Z,28.10
2022-11-13T16:34:46.967Z,27.90
2022-11-13T16:37:24.337Z,28.55
2022-11-13T16:39:51.160Z,28.50
2022-11-13T16:42:18.016Z,27.50
2022-11-13T16:44:44.805Z,30.02
2022-11-13T16:47:29.770Z,29.45
2022-11-13T16:49:56.569Z,29.02
2022-11-13T16:52:23.455Z,28.25
2022-11-13T16:54:51.423Z,28.75
2022-11-13T16:57:18.433Z,28.88
2022-11-13T16:59:45.227Z,29.50
2022-11-13T17:02:18.111Z,29.10
2022-11-13T17:04:45.201Z,31.73
2022-11-13T17:07:14.664Z,31.83
2022-11-13T17:09:43.369Z,33.17
2022-11-13T17:12:11.441Z,31.02
2022-11-13T17:14:39.049Z,31.35
2022-11-13T17:17:08.645Z,31.38
2022-11-13T17:19:35.486Z,31.58
2022-11-13T17:22:02.308Z,31.73
2022-11-13T17:24:29.113Z,31.58
2022-11-13T17:26:55.926Z,34.67
2022-11-13T17:29:22.826Z,34.10
2022-11-13T17:31:49.648Z,31.30
2022-11-13T17:34:16.413Z,32.92
2022-11-13T17:36:43.207Z,33.78
2022-11-13T17:39:10.021Z,34.65
2022-11-13T17:41:37.850Z,34.08
2022-11-13T17:44:04.984Z,35.40
2022-11-13T17:46:31.764Z,34.63
2022-11-13T17:48:58.504Z,33.25
2022-11-13T17:51:25.482Z,34.53
2022-11-13T17:53:52.277Z,33.30
2022-11-13T17:56:20.105Z,35.17
2022-11-13T17:58:46.918Z,32.25
2022-11-13T18:01:20.915Z,37.65
2022-11-13T18:03:54.160Z,34.00
2022-11-13T18:06:21.289Z,34.75
2022-11-13T18:08:48.366Z,32.38
2022-11-13T18:11:21.772Z,32.95
2022-11-13T18:13:50.126Z,31.67
2022-11-13T18:16:23.955Z,31.15
2022-11-13T18:18:55.297Z,31.02
2022-11-13T18:21:26.763Z,31.58
2022-11-13T18:24:10.655Z,31.63
2022-11-13T18:26:37.444Z,32.13
2022-11-13T18:29:04.764Z,31.58
2022-11-13T18:31:31.604Z,30.83
2022-11-13T18:34:00.347Z,34.17
2022-11-13T18:36:27.371Z,32.92
2022-11-13T18:38:54.406Z,34.22
2022-11-13T18:41:22.616Z,31.08
2022-11-13T18:43:51.223Z,36.88
2022-11-13T18:46:20.934Z,36.10
2022-11-13T18:48:49.044Z,34.05
2022-11-13T18:51:24.449Z,32.33
2022-11-13T18:53:52.867Z,32.58
2022-11-13T18:56:23.157Z,32.03
2022-11-13T18:58:51.567Z,32.35
2022-11-13T19:01:25.265Z,31.33
2022-11-13T19:04:21.007Z,25.33
2022-11-13T19:06:41.209Z,33.92
2022-11-13T19:09:15.365Z,32.80
2022-11-13T19:11:43.388Z,31.92
2022-11-13T19:14:17.466Z,33.35
2022-11-13T19:16:44.564Z,31.13
2022-11-13T19:19:17.801Z,31.38
2022-11-13T19:21:45.351Z,31.33
2022-11-13T19:24:14.394Z,30.17
2022-11-13T19:26:43.038Z,29.70
2022-11-13T19:29:10.378Z,30.55
2022-11-13T19:31:37.153Z,29.55
2022-11-13T19:34:07.684Z,30.50
2022-11-13T19:36:35.803Z,29.75
2022-11-13T19:39:04.013Z,30.30
2022-11-13T19:41:30.808Z,30.02
2022-11-13T19:43:59.661Z,30.35
2022-11-13T19:46:27.667Z,31.35
2022-11-13T19:48:54.476Z,31.70
2022-11-13T19:51:24.036Z,38.33
2022-11-13T19:53:56.592Z,38.80
2022-11-13T19:56:27.009Z,34.60
2022-11-13T19:58:54.369Z,31.40
2022-11-13T20:01:27.390Z,30.05
2022-11-13T20:04:00.740Z,29.45
2022-11-13T20:06:29.767Z,29.40
2022-11-13T20:08:59.146Z,29.35
2022-11-13T20:11:26.073Z,28.98
2022-11-13T20:13:53.177Z,30.67
2022-11-13T20:16:23.535Z,29.23
2022-11-13T20:18:51.522Z,28.75
2022-11-13T20:21:26.801Z,29.55
2022-11-13T20:23:57.185Z,27.67
2022-11-13T20:26:24.536Z,28.40
2022-11-13T20:28:51.397Z,29.40
2022-11-13T20:31:22.278Z,29.83
2022-11-13T20:33:50.868Z,29.63
2022-11-13T20:36:18.369Z,29.73
2022-11-13T20:38:56.731Z,28.90
2022-11-13T20:41:25.094Z,29.00
2022-11-13T20:43:53.141Z,29.88
2022-11-13T20:46:21.046Z,28.55
2022-11-13T20:48:48.679Z,31.38
2022-11-13T20:51:26.110Z,28.55
2022-11-13T20:53:54.120Z,29.38
2022-11-13T20:56:23.362Z,29.85
2022-11-13T20:58:50.531Z,29.50
2022-11-13T21:01:21.241Z,29.52
2022-11-13T21:03:48.845Z,28.73
2022-11-13T21:06:19.245Z,28.70
2022-11-13T21:08:46.639Z,29.85
2022-11-13T21:11:21.709Z,30.75
2022-11-13T21:13:49.569Z,28.38
2022-11-13T21:16:18.048Z,30.27
2022-11-13T21:18:46.076Z,29.02
2022-11-13T21:21:19.416Z,31.90
2022-11-13T21:23:47.791Z,29.13
2022-11-13T21:26:15.513Z,32.22
2022-11-13T21:28:42.797Z,31.05
2022-11-13T21:31:18.552Z,29.30
2022-11-13T21:33:47.497Z,30.65
2022-11-13T21:36:20.426Z,29.08
2022-11-13T21:38:50.704Z,31.38
2022-11-13T21:41:24.441Z,31.02
2022-11-13T21:44:04.516Z,32.40
2022-11-13T21:46:34.845Z,31.08
2022-11-13T21:49:07.427Z,31.75
2022-11-13T21:51:37.428Z,31.25
2022-11-13T21:54:05.001Z,31.52
2022-11-13T21:56:33.558Z,32.65
2022-11-13T21:59:00.410Z,30.17
2022-11-13T22:01:27.850Z,31.63
2022-11-13T22:03:55.136Z,31.67
2022-11-13T22:06:28.810Z,33.28
2022-11-13T22:09:00.187Z,23.05
2022-11-13T22:11:30.229Z,31.85
2022-11-13T22:13:57.563Z,30.85
2022-11-13T22:16:26.420Z,30.45
2022-11-13T22:18:58.665Z,31.77
2022-11-13T22:21:27.135Z,31.35
2022-11-13T22:23:54.267Z,31.52
2022-11-13T22:26:23.865Z,29.08
2022-11-13T22:28:51.627Z,32.38
2022-11-13T22:31:22.617Z,30.60
2022-11-13T22:33:54.618Z,32.13
2022-11-13T22:36:28.484Z,30.20
2022-11-13T22:38:56.236Z,30.90
2022-11-13T22:41:28.278Z,31.52
2022-11-13T22:43:59.635Z,31.30
2022-11-13T22:46:30.142Z,30.33
2022-11-13T22:48:59.611Z,29.92
2022-11-13T22:51:30.619Z,31.75
2022-11-13T22:54:01.462Z,31.45
2022-11-13T22:56:31.581Z,31.80
2022-11-13T22:59:00.897Z,31.85
2022-11-13T23:01:30.944Z,30.80
2022-11-13T23:04:00.811Z,31.52
2022-11-13T23:06:30.667Z,30.92
2022-11-13T23:08:57.987Z,31.95
2022-11-13T23:11:33.199Z,30.85
2022-11-13T23:14:02.342Z,30.25
2022-11-13T23:16:30.725Z,31.90
2022-11-13T23:18:59.467Z,29.85
2022-11-13T23:21:27.658Z,31.27
2022-11-13T23:23:55.359Z,31.17
2022-11-13T23:26:23.093Z,30.13
2022-11-13T23:28:50.042Z,29.40
2022-11-13T23:31:16.888Z,29.70
2022-11-13T23:33:43.710Z,29.98
2022-11-13T23:36:12.683Z,30.90
2022-11-13T23:38:39.536Z,30.35
2022-11-13T23:41:06.539Z,29.50
2022-11-13T23:44:02.092Z,30.25
2022-11-13T23:46:20.179Z,28.67
2022-11-13T23:48:46.946Z,29.33
2022-11-13T23:51:13.744Z,28.73
2022-11-13T23:53:40.503Z,29.00
2022-11-13T23:56:08.224Z,29.25
2022-11-13T23:58:35.225Z,29.25
